createdAt,value
2018-12-21T00:00:19.019Z,998.32
2018-12-21T00:01:19.028Z,998.33
2018-12-21T00:02:19.003Z,998.35
2018-12-21T00:03:18.996Z,998.34
2018-12-21T00:04:18.993Z,998.33
2018-12-21T00:05:18.982Z,998.36
2018-12-21T00:06:18.975Z,998.35
2018-12-21T00:07:18.971Z,998.34
2018-12-21T00:08:18.962Z,998.37
2018-12-21T00:09:18.953Z,998.34
2018-12-21T00:10:18.948Z,998.33
2018-12-21T00:11:18.939Z,998.30
2018-12-21T00:12:18.947Z,998.31
2018-12-21T00:13:18.926Z,998.33
2018-12-21T00:14:18.918Z,998.33
2018-12-21T00:15:18.912Z,998.32
2018-12-21T00:16:18.903Z,998.31
2018-12-21T00:17:18.899Z,998.28
2018-12-21T00:18:18.890Z,998.30
2018-12-21T00:19:18.884Z,998.30
2018-12-21T00:20:18.880Z,998.28
2018-12-21T00:21:21.961Z,998.33
2018-12-21T00:22:18.862Z,998.31
2018-12-21T00:23:18.939Z,998.32
2018-12-21T00:24:18.848Z,998.26
2018-12-21T00:25:18.840Z,998.22
2018-12-21T00:26:18.833Z,998.22
2018-12-21T00:27:18.830Z,998.21
2018-12-21T00:28:18.920Z,998.21
2018-12-21T00:29:18.825Z,998.22
2018-12-21T00:30:18.805Z,998.20
2018-12-21T00:31:18.869Z,998.21
2018-12-21T00:32:21.009Z,998.20
2018-12-21T00:33:24.015Z,998.19
2018-12-21T00:34:23.024Z,998.17
2018-12-21T00:35:20.017Z,998.14
2018-12-21T00:36:23.515Z,998.20
2018-12-21T00:37:20.021Z,998.19
2018-12-21T00:38:19.991Z,998.18
2018-12-21T00:39:20.007Z,998.18
2018-12-21T00:40:20.012Z,998.14
2018-12-21T00:41:25.014Z,998.09
2018-12-21T00:42:21.512Z,998.13
2018-12-21T00:43:20.527Z,998.15
2018-12-21T00:44:18.837Z,998.13
2018-12-21T00:45:25.514Z,998.12
2018-12-21T00:46:21.010Z,998.12
2018-12-21T00:47:19.529Z,998.14
2018-12-21T00:48:21.526Z,998.10
2018-12-21T00:49:21.026Z,998.10
2018-12-21T00:50:22.519Z,998.05
2018-12-21T00:51:30.001Z,998.03
2018-12-21T00:52:21.010Z,998.06
2018-12-21T00:53:24.016Z,998.03
2018-12-21T00:54:21.519Z,998.03
2018-12-21T00:55:22.011Z,998.05
2018-12-21T00:56:26.524Z,998.09
2018-12-21T00:57:26.557Z,998.06
2018-12-21T00:58:20.527Z,998.07
2018-12-21T00:59:21.528Z,998.07
2018-12-21T01:00:18.588Z,998.12
2018-12-21T01:01:18.618Z,998.08
2018-12-21T01:02:18.588Z,998.10
2018-12-21T01:03:18.577Z,998.12
2018-12-21T01:04:18.565Z,998.08
2018-12-21T01:05:18.635Z,998.05
2018-12-21T01:06:18.555Z,998.12
2018-12-21T01:07:18.546Z,998.13
2018-12-21T01:08:18.539Z,998.11
2018-12-21T01:09:18.532Z,998.13
2018-12-21T01:10:18.529Z,998.09
2018-12-21T01:11:18.515Z,998.09
2018-12-21T01:12:18.509Z,998.10
2018-12-21T01:13:18.503Z,998.12
2018-12-21T01:14:18.495Z,998.11
2018-12-21T01:15:18.488Z,998.11
2018-12-21T01:16:18.480Z,998.13
2018-12-21T01:17:18.476Z,998.11
2018-12-21T01:18:18.467Z,998.13
2018-12-21T01:19:18.460Z,998.12
2018-12-21T01:20:18.454Z,998.07
2018-12-21T01:21:18.445Z,998.08
2018-12-21T01:22:18.472Z,998.10
2018-12-21T01:23:18.443Z,998.13
2018-12-21T01:24:19.299Z,998.11
2018-12-21T01:25:18.485Z,998.14
2018-12-21T01:26:18.415Z,998.16
2018-12-21T01:27:18.409Z,998.11
2018-12-21T01:28:18.431Z,998.12
2018-12-21T01:29:18.401Z,998.13
2018-12-21T01:30:18.407Z,998.14
2018-12-21T01:31:18.484Z,998.14
2018-12-21T01:32:18.379Z,998.14
2018-12-21T01:33:18.372Z,998.17
2018-12-21T01:34:18.359Z,998.17
2018-12-21T01:35:18.411Z,998.20
2018-12-21T01:36:18.343Z,998.20
2018-12-21T01:37:18.337Z,998.21
2018-12-21T01:38:18.332Z,998.23
2018-12-21T01:39:18.327Z,998.22
2018-12-21T01:40:18.339Z,998.18
2018-12-21T01:41:18.342Z,998.17
2018-12-21T01:42:18.306Z,998.14
2018-12-21T01:43:18.306Z,998.16
2018-12-21T01:44:18.308Z,998.17
2018-12-21T01:45:20.137Z,998.15
2018-12-21T01:46:18.277Z,998.18
2018-12-21T01:47:18.385Z,998.14
2018-12-21T01:48:18.314Z,998.17
2018-12-21T01:49:18.257Z,998.13
2018-12-21T01:50:18.316Z,998.14
2018-12-21T01:51:18.272Z,998.15
2018-12-21T01:52:18.355Z,998.14
2018-12-21T01:53:18.274Z,998.08
2018-12-21T01:54:18.267Z,998.07
2018-12-21T01:55:18.237Z,998.05
2018-12-21T01:56:18.234Z,998.05
2018-12-21T01:57:18.204Z,998.07
2018-12-21T01:58:18.189Z,998.03
2018-12-21T01:59:18.227Z,998.06
2018-12-21T02:00:18.191Z,998.03
2018-12-21T02:01:18.232Z,998.03
2018-12-21T02:02:18.167Z,998.05
2018-12-21T02:03:18.263Z,998.01
2018-12-21T02:04:18.230Z,998.00
2018-12-21T02:05:18.170Z,998.04
2018-12-21T02:06:18.143Z,998.04
2018-12-21T02:07:18.140Z,998.04
2018-12-21T02:08:18.120Z,998.01
2018-12-21T02:09:18.182Z,998.01
2018-12-21T02:10:18.109Z,997.97
2018-12-21T02:11:18.125Z,997.99
2018-12-21T02:12:18.098Z,997.96
2018-12-21T02:13:18.090Z,997.91
2018-12-21T02:14:18.087Z,997.96
2018-12-21T02:15:18.134Z,997.93
2018-12-21T02:16:18.078Z,997.94
2018-12-21T02:17:18.066Z,997.93
2018-12-21T02:18:18.052Z,997.92
2018-12-21T02:19:18.046Z,997.92
2018-12-21T02:20:18.152Z,997.89
2018-12-21T02:21:18.030Z,997.88
2018-12-21T02:22:18.025Z,997.90
2018-12-21T02:23:18.018Z,997.90
2018-12-21T02:24:18.012Z,997.89
2018-12-21T02:25:18.011Z,997.88
2018-12-21T02:26:17.995Z,997.86
2018-12-21T02:27:18.054Z,997.89
2018-12-21T02:28:17.984Z,997.87
2018-12-21T02:29:17.976Z,997.90
2018-12-21T02:30:17.972Z,997.89
2018-12-21T02:31:17.965Z,997.94
2018-12-21T02:32:17.949Z,997.92
2018-12-21T02:33:17.937Z,997.95
2018-12-21T02:34:17.943Z,997.96
2018-12-21T02:35:17.934Z,997.94
2018-12-21T02:36:17.929Z,997.94
2018-12-21T02:37:17.922Z,997.95
2018-12-21T02:38:17.912Z,997.96
2018-12-21T02:39:17.916Z,997.94
2018-12-21T02:40:17.901Z,997.92
2018-12-21T02:41:17.891Z,997.92
2018-12-21T02:42:17.915Z,997.89
2018-12-21T02:43:17.881Z,997.88
2018-12-21T02:44:17.872Z,997.84
2018-12-21T02:45:17.863Z,997.85
2018-12-21T02:46:17.860Z,997.86
2018-12-21T02:47:17.852Z,997.81
2018-12-21T02:48:17.855Z,997.85
2018-12-21T02:49:17.843Z,997.75
2018-12-21T02:50:17.832Z,997.76
2018-12-21T02:51:17.841Z,997.72
2018-12-21T02:52:17.815Z,997.71
2018-12-21T02:53:17.809Z,997.64
2018-12-21T02:54:17.806Z,997.63
2018-12-21T02:55:17.826Z,997.65
2018-12-21T02:56:18.112Z,997.68
2018-12-21T02:57:17.781Z,997.67
2018-12-21T02:58:17.774Z,997.68
2018-12-21T02:59:17.766Z,997.66
2018-12-21T03:00:17.759Z,997.71
2018-12-21T03:01:17.753Z,997.69
2018-12-21T03:02:17.746Z,997.70
2018-12-21T03:03:17.740Z,997.65
2018-12-21T03:04:17.732Z,997.64
2018-12-21T03:05:17.725Z,997.58
2018-12-21T03:06:17.718Z,997.56
2018-12-21T03:07:17.711Z,997.53
2018-12-21T03:08:17.705Z,997.54
2018-12-21T03:09:17.696Z,997.53
2018-12-21T03:10:17.698Z,997.46
2018-12-21T03:11:17.686Z,997.49
2018-12-21T03:12:17.677Z,997.40
2018-12-21T03:13:17.672Z,997.38
2018-12-21T03:14:17.663Z,997.38
2018-12-21T03:15:17.655Z,997.31
2018-12-21T03:16:17.651Z,997.29
2018-12-21T03:17:17.642Z,997.27
2018-12-21T03:18:17.634Z,997.27
2018-12-21T03:19:17.628Z,997.21
2018-12-21T03:20:17.619Z,997.20
2018-12-21T03:21:17.613Z,997.19
2018-12-21T03:22:17.631Z,997.17
2018-12-21T03:23:17.607Z,997.19
2018-12-21T03:24:17.594Z,997.19
2018-12-21T03:25:17.585Z,997.21
2018-12-21T03:26:17.578Z,997.17
2018-12-21T03:27:17.571Z,997.15
2018-12-21T03:28:17.563Z,997.08
2018-12-21T03:29:17.558Z,997.15
2018-12-21T03:30:17.553Z,997.10
2018-12-21T03:31:17.567Z,997.07
2018-12-21T03:32:17.539Z,997.10
2018-12-21T03:33:17.530Z,997.01
2018-12-21T03:34:17.530Z,997.04
2018-12-21T03:35:17.522Z,997.04
2018-12-21T03:36:17.516Z,997.03
2018-12-21T03:37:17.500Z,997.01
2018-12-21T03:38:17.496Z,997.05
2018-12-21T03:39:17.489Z,997.05
2018-12-21T03:40:17.480Z,997.03
2018-12-21T03:41:17.477Z,997.03
2018-12-21T03:42:17.466Z,997.09
2018-12-21T03:43:17.460Z,997.09
2018-12-21T03:44:17.450Z,997.13
2018-12-21T03:45:17.452Z,997.12
2018-12-21T03:46:17.439Z,997.09
2018-12-21T03:47:17.434Z,997.08
2018-12-21T03:48:17.424Z,997.04
2018-12-21T03:49:17.416Z,997.03
2018-12-21T03:50:17.408Z,997.01
2018-12-21T03:51:17.404Z,996.99
2018-12-21T03:52:24.198Z,997.02
2018-12-21T03:53:17.388Z,997.00
2018-12-21T03:54:17.381Z,996.99
2018-12-21T03:55:17.375Z,996.98
2018-12-21T03:56:17.369Z,996.98
2018-12-21T03:57:17.360Z,996.92
2018-12-21T03:58:17.353Z,996.87
2018-12-21T03:59:17.346Z,996.86
2018-12-21T04:00:17.337Z,996.87
2018-12-21T04:01:17.331Z,996.83
2018-12-21T04:02:17.324Z,996.80
2018-12-21T04:03:17.317Z,996.81
2018-12-21T04:04:17.308Z,996.76
2018-12-21T04:05:17.304Z,996.73
2018-12-21T04:06:17.295Z,996.76
2018-12-21T04:07:17.279Z,996.73
2018-12-21T04:08:17.279Z,996.74
2018-12-21T04:09:17.276Z,996.69
2018-12-21T04:10:17.267Z,996.79
2018-12-21T04:11:17.260Z,996.71
2018-12-21T04:12:17.251Z,996.73
2018-12-21T04:13:17.244Z,996.70
2018-12-21T04:14:17.238Z,996.71
2018-12-21T04:15:17.234Z,996.76
2018-12-21T04:16:17.223Z,996.75
2018-12-21T04:17:17.224Z,996.68
2018-12-21T04:18:38.207Z,996.73
2018-12-21T04:19:17.193Z,996.72
2018-12-21T04:20:17.184Z,996.73
2018-12-21T04:21:17.177Z,996.78
2018-12-21T04:22:17.170Z,996.71
2018-12-21T04:23:17.165Z,996.68
2018-12-21T04:24:17.159Z,996.70
2018-12-21T04:25:17.161Z,996.65
2018-12-21T04:26:17.143Z,996.66
2018-12-21T04:27:17.136Z,996.65
2018-12-21T04:28:17.371Z,996.59
2018-12-21T04:29:17.122Z,996.57
2018-12-21T04:30:17.115Z,996.57
2018-12-21T04:31:17.102Z,996.63
2018-12-21T04:32:17.102Z,996.65
2018-12-21T04:33:17.093Z,996.60
2018-12-21T04:34:17.086Z,996.59
2018-12-21T04:35:17.083Z,996.55
2018-12-21T04:36:17.075Z,996.55
2018-12-21T04:37:17.069Z,996.57
2018-12-21T04:38:17.057Z,996.57
2018-12-21T04:39:17.051Z,996.53
2018-12-21T04:40:17.043Z,996.52
2018-12-21T04:41:17.039Z,996.55
2018-12-21T04:42:17.034Z,996.49
2018-12-21T04:43:17.024Z,996.51
2018-12-21T04:44:17.017Z,996.61
2018-12-21T04:45:17.009Z,996.60
2018-12-21T04:46:17.004Z,996.64
2018-12-21T04:47:16.994Z,996.58
2018-12-21T04:48:16.988Z,996.60
2018-12-21T04:49:16.979Z,996.63
2018-12-21T04:50:16.975Z,996.61
2018-12-21T04:51:16.973Z,996.61
2018-12-21T04:52:16.963Z,996.66
2018-12-21T04:53:16.964Z,996.61
2018-12-21T04:54:16.948Z,996.63
2018-12-21T04:55:16.941Z,996.60
2018-12-21T04:56:16.934Z,996.59
2018-12-21T04:57:16.931Z,996.60
2018-12-21T04:58:16.924Z,996.57
2018-12-21T04:59:17.779Z,996.60
2018-12-21T05:00:16.908Z,996.57
2018-12-21T05:01:16.924Z,996.58
2018-12-21T05:02:16.893Z,996.51
2018-12-21T05:03:16.898Z,996.48
2018-12-21T05:04:20.391Z,996.44
2018-12-21T05:05:16.876Z,996.39
2018-12-21T05:06:16.865Z,996.38
2018-12-21T05:07:16.857Z,996.37
2018-12-21T05:08:16.851Z,996.36
2018-12-21T05:09:16.844Z,996.32
2018-12-21T05:10:16.836Z,996.30
2018-12-21T05:11:16.849Z,996.27
2018-12-21T05:12:16.823Z,996.27
2018-12-21T05:13:16.817Z,996.30
2018-12-21T05:14:16.810Z,996.27
2018-12-21T05:15:16.809Z,996.24
2018-12-21T05:16:16.798Z,996.27
2018-12-21T05:17:16.791Z,996.28
2018-12-21T05:18:16.808Z,996.29
2018-12-21T05:19:16.775Z,996.29
2018-12-21T05:20:16.767Z,996.26
2018-12-21T05:21:16.760Z,996.25
2018-12-21T05:22:16.750Z,996.23
2018-12-21T05:23:16.751Z,996.21
2018-12-21T05:24:16.748Z,996.23
2018-12-21T05:25:16.732Z,996.20
2018-12-21T05:26:16.732Z,996.17
2018-12-21T05:27:16.722Z,996.15
2018-12-21T05:28:16.713Z,996.16
2018-12-21T05:29:16.711Z,996.16
2018-12-21T05:30:16.699Z,996.16
2018-12-21T05:31:16.691Z,996.15
2018-12-21T05:32:16.683Z,996.14
2018-12-21T05:33:16.677Z,996.10
2018-12-21T05:34:16.670Z,996.11
2018-12-21T05:35:16.665Z,996.10
2018-12-21T05:36:16.657Z,996.06
2018-12-21T05:37:16.654Z,996.08
2018-12-21T05:38:16.641Z,996.09
2018-12-21T05:39:16.635Z,996.11
2018-12-21T05:40:16.626Z,996.12
2018-12-21T05:41:16.624Z,996.10
2018-12-21T05:42:16.622Z,996.12
2018-12-21T05:43:16.609Z,996.06
2018-12-21T05:44:16.597Z,996.05
2018-12-21T05:45:16.592Z,996.01
2018-12-21T05:46:16.586Z,995.96
2018-12-21T05:47:16.581Z,995.95
2018-12-21T05:48:16.571Z,995.94
2018-12-21T05:49:16.566Z,995.90
2018-12-21T05:50:16.559Z,995.95
2018-12-21T05:51:16.550Z,995.95
2018-12-21T05:52:16.543Z,995.90
2018-12-21T05:53:16.534Z,995.82
2018-12-21T05:54:16.530Z,995.81
2018-12-21T05:55:16.522Z,995.77
2018-12-21T05:56:16.522Z,995.78
2018-12-21T05:57:16.508Z,995.81
2018-12-21T05:58:16.501Z,995.77
2018-12-21T05:59:16.495Z,995.75
2018-12-21T06:00:16.538Z,995.81
2018-12-21T06:01:16.481Z,995.79
2018-12-21T06:02:16.474Z,995.77
2018-12-21T06:03:16.468Z,995.76
2018-12-21T06:04:16.462Z,995.76
2018-12-21T06:05:16.461Z,995.78
2018-12-21T06:06:16.446Z,995.78
2018-12-21T06:07:16.440Z,995.75
2018-12-21T06:08:16.433Z,995.76
2018-12-21T06:09:16.425Z,995.70
2018-12-21T06:10:16.420Z,995.64
2018-12-21T06:11:16.415Z,995.67
2018-12-21T06:12:16.402Z,995.63
2018-12-21T06:13:16.396Z,995.63
2018-12-21T06:14:16.393Z,995.62
2018-12-21T06:15:16.385Z,995.54
2018-12-21T06:16:16.377Z,995.52
2018-12-21T06:17:16.371Z,995.55
2018-12-21T06:18:16.363Z,995.55
2018-12-21T06:19:16.364Z,995.49
2018-12-21T06:20:16.349Z,995.43
2018-12-21T06:21:16.344Z,995.44
2018-12-21T06:22:16.335Z,995.37
2018-12-21T06:23:16.328Z,995.41
2018-12-21T06:24:16.319Z,995.44
2018-12-21T06:25:16.321Z,995.41
2018-12-21T06:26:16.308Z,995.43
2018-12-21T06:27:16.315Z,995.44
2018-12-21T06:28:16.294Z,995.43
2018-12-21T06:29:16.285Z,995.37
2018-12-21T06:30:16.282Z,995.38
2018-12-21T06:31:16.946Z,995.41
2018-12-21T06:32:16.266Z,995.38
2018-12-21T06:33:16.258Z,995.30
2018-12-21T06:34:16.251Z,995.24
2018-12-21T06:35:16.247Z,995.25
2018-12-21T06:36:16.233Z,995.25
2018-12-21T06:37:16.231Z,995.19
2018-12-21T06:38:16.223Z,995.15
2018-12-21T06:39:16.221Z,995.16
2018-12-21T06:40:16.209Z,995.14
2018-12-21T06:41:16.202Z,995.10
2018-12-21T06:42:16.197Z,995.10
2018-12-21T06:43:16.191Z,995.08
2018-12-21T06:44:16.184Z,995.02
2018-12-21T06:45:16.190Z,995.01
2018-12-21T06:46:16.173Z,995.04
2018-12-21T06:47:16.166Z,994.97
2018-12-21T06:48:16.155Z,994.97
2018-12-21T06:49:16.151Z,994.93
2018-12-21T06:50:18.209Z,994.92
2018-12-21T06:51:16.137Z,994.92
2018-12-21T06:52:16.128Z,994.91
2018-12-21T06:53:18.010Z,994.85
2018-12-21T06:54:16.117Z,994.85
2018-12-21T06:55:16.111Z,994.84
2018-12-21T06:56:16.109Z,994.86
2018-12-21T06:57:16.099Z,994.83
2018-12-21T06:58:16.088Z,994.81
2018-12-21T06:59:16.084Z,994.81
2018-12-21T07:00:16.075Z,994.81
2018-12-21T07:01:16.070Z,994.81
2018-12-21T07:02:16.064Z,994.75
2018-12-21T07:03:17.178Z,994.72
2018-12-21T07:04:16.050Z,994.72
2018-12-21T07:05:16.044Z,994.63
2018-12-21T07:06:16.036Z,994.64
2018-12-21T07:07:16.030Z,994.60
2018-12-21T07:08:16.027Z,994.57
2018-12-21T07:09:16.016Z,994.57
2018-12-21T07:10:16.010Z,994.55
2018-12-21T07:11:16.005Z,994.56
2018-12-21T07:12:15.998Z,994.57
2018-12-21T07:13:15.988Z,994.50
2018-12-21T07:14:15.984Z,994.47
2018-12-21T07:15:15.977Z,994.51
2018-12-21T07:16:15.969Z,994.48
2018-12-21T07:17:15.965Z,994.52
2018-12-21T07:18:15.959Z,994.51
2018-12-21T07:19:15.952Z,994.50
2018-12-21T07:20:15.946Z,994.43
2018-12-21T07:21:15.938Z,994.51
2018-12-21T07:22:15.932Z,994.50
2018-12-21T07:23:15.925Z,994.43
2018-12-21T07:24:15.917Z,994.42
2018-12-21T07:25:15.913Z,994.41
2018-12-21T07:26:15.904Z,994.42
2018-12-21T07:27:15.899Z,994.41
2018-12-21T07:28:15.892Z,994.37
2018-12-21T07:29:15.887Z,994.38
2018-12-21T07:30:15.875Z,994.40
2018-12-21T07:31:15.870Z,994.37
2018-12-21T07:32:15.864Z,994.40
2018-12-21T07:33:15.856Z,994.36
2018-12-21T07:34:15.851Z,994.30
2018-12-21T07:35:15.846Z,994.23
2018-12-21T07:36:15.837Z,994.27
2018-12-21T07:37:15.831Z,994.21
2018-12-21T07:38:15.823Z,994.20
2018-12-21T07:39:15.818Z,994.20
2018-12-21T07:40:15.810Z,994.20
2018-12-21T07:41:15.822Z,994.16
2018-12-21T07:42:15.801Z,994.11
2018-12-21T07:43:15.790Z,994.06
2018-12-21T07:44:15.784Z,994.12
2018-12-21T07:45:15.780Z,994.07
2018-12-21T07:46:15.771Z,994.06
2018-12-21T07:47:15.764Z,993.99
2018-12-21T07:48:15.758Z,994.00
2018-12-21T07:49:15.752Z,993.95
2018-12-21T07:50:15.745Z,993.90
2018-12-21T07:51:15.738Z,993.91
2018-12-21T07:52:15.732Z,994.03
2018-12-21T07:53:15.723Z,993.94
2018-12-21T07:54:15.719Z,993.92
2018-12-21T07:55:15.710Z,993.92
2018-12-21T07:56:15.706Z,993.90
2018-12-21T07:57:15.700Z,993.88
2018-12-21T07:58:15.692Z,993.82
2018-12-21T07:59:15.685Z,993.89
2018-12-21T08:00:15.679Z,993.78
2018-12-21T08:01:15.674Z,993.73
2018-12-21T08:02:15.666Z,993.74
2018-12-21T08:03:16.096Z,993.65
2018-12-21T08:04:15.655Z,993.65
2018-12-21T08:05:15.646Z,993.64
2018-12-21T08:06:15.639Z,993.62
2018-12-21T08:07:15.631Z,993.53
2018-12-21T08:08:15.626Z,993.45
2018-12-21T08:09:15.618Z,993.49
2018-12-21T08:10:15.619Z,993.45
2018-12-21T08:11:15.607Z,993.40
2018-12-21T08:12:15.600Z,993.38
2018-12-21T08:13:15.595Z,993.34
2018-12-21T08:14:15.584Z,993.30
2018-12-21T08:15:15.581Z,993.28
2018-12-21T08:16:15.583Z,993.27
2018-12-21T08:17:15.571Z,993.25
2018-12-21T08:18:15.566Z,993.23
2018-12-21T08:19:15.554Z,993.22
2018-12-21T08:20:15.547Z,993.26
2018-12-21T08:21:15.540Z,993.21
2018-12-21T08:22:15.537Z,993.22
2018-12-21T08:23:15.528Z,993.18
2018-12-21T08:24:15.521Z,993.18
2018-12-21T08:25:15.519Z,993.22
2018-12-21T08:26:15.515Z,993.16
2018-12-21T08:27:15.500Z,993.13
2018-12-21T08:28:15.493Z,993.18
2018-12-21T08:29:15.490Z,993.14
2018-12-21T08:30:15.491Z,993.12
2018-12-21T08:31:15.476Z,993.11
2018-12-21T08:32:15.480Z,993.07
2018-12-21T08:33:15.463Z,993.06
2018-12-21T08:34:15.455Z,993.04
2018-12-21T08:35:15.449Z,993.02
2018-12-21T08:36:15.442Z,992.95
2018-12-21T08:37:15.432Z,992.93
2018-12-21T08:38:15.428Z,992.99
2018-12-21T08:39:15.423Z,993.04
2018-12-21T08:40:15.411Z,993.01
2018-12-21T08:41:15.408Z,992.92
2018-12-21T08:42:15.403Z,992.90
2018-12-21T08:43:15.398Z,992.88
2018-12-21T08:44:15.388Z,992.81
2018-12-21T08:45:15.385Z,992.76
2018-12-21T08:46:15.381Z,992.81
2018-12-21T08:47:15.369Z,992.76
2018-12-21T08:48:15.364Z,992.72
2018-12-21T08:49:15.359Z,992.67
2018-12-21T08:50:15.350Z,992.71
2018-12-21T08:51:15.345Z,992.70
2018-12-21T08:52:15.339Z,992.77
2018-12-21T08:53:15.334Z,992.72
2018-12-21T08:54:15.331Z,992.63
2018-12-21T08:55:15.320Z,992.68
2018-12-21T08:56:15.315Z,992.61
2018-12-21T08:57:15.306Z,992.66
2018-12-21T08:58:15.299Z,992.63
2018-12-21T08:59:15.293Z,992.66
2018-12-21T09:00:15.292Z,992.66
2018-12-21T09:01:15.279Z,992.59
2018-12-21T09:02:15.274Z,992.61
2018-12-21T09:03:15.269Z,992.60
2018-12-21T09:04:15.260Z,992.52
2018-12-21T09:05:15.259Z,992.51
2018-12-21T09:06:18.602Z,992.54
2018-12-21T09:07:15.242Z,992.57
2018-12-21T09:08:15.234Z,992.53
2018-12-21T09:09:15.231Z,992.52
2018-12-21T09:10:15.222Z,992.55
2018-12-21T09:11:15.215Z,992.61
2018-12-21T09:12:15.211Z,992.60
2018-12-21T09:13:15.215Z,992.58
2018-12-21T09:14:15.197Z,992.60
2018-12-21T09:15:15.190Z,992.66
2018-12-21T09:16:15.184Z,992.70
2018-12-21T09:17:15.180Z,992.73
2018-12-21T09:18:15.172Z,992.71
2018-12-21T09:19:15.163Z,992.65
2018-12-21T09:20:15.159Z,992.71
2018-12-21T09:21:15.150Z,992.63
2018-12-21T09:22:15.147Z,992.61
2018-12-21T09:23:15.144Z,992.65
2018-12-21T09:24:15.132Z,992.70
2018-12-21T09:25:15.124Z,992.59
2018-12-21T09:26:15.195Z,992.61
2018-12-21T09:27:15.113Z,992.57
2018-12-21T09:28:15.108Z,992.51
2018-12-21T09:29:15.102Z,992.51
2018-12-21T09:30:15.094Z,992.45
2018-12-21T09:31:15.092Z,992.46
2018-12-21T09:32:15.082Z,992.40
2018-12-21T09:33:15.079Z,992.35
2018-12-21T09:34:15.070Z,992.34
2018-12-21T09:35:15.257Z,992.28
2018-12-21T09:36:15.056Z,992.21
2018-12-21T09:37:15.049Z,992.17
2018-12-21T09:38:15.047Z,992.20
2018-12-21T09:39:15.065Z,992.11
2018-12-21T09:40:15.057Z,992.08
2018-12-21T09:41:15.024Z,992.02
2018-12-21T09:42:15.017Z,991.95
2018-12-21T09:43:15.009Z,991.96
2018-12-21T09:44:15.003Z,991.96
2018-12-21T09:45:15.001Z,991.93
2018-12-21T09:46:15.136Z,991.91
2018-12-21T09:47:15.354Z,991.93
2018-12-21T09:48:15.029Z,991.84
2018-12-21T09:49:15.042Z,991.87
2018-12-21T09:50:14.964Z,991.89
2018-12-21T09:51:14.960Z,991.83
2018-12-21T09:52:14.951Z,991.77
2018-12-21T09:53:14.945Z,991.80
2018-12-21T09:54:14.936Z,991.79
2018-12-21T09:55:14.950Z,991.68
2018-12-21T09:56:14.931Z,991.72
2018-12-21T09:57:14.915Z,991.67
2018-12-21T09:58:14.915Z,991.64
2018-12-21T09:59:14.908Z,991.59
2018-12-21T10:00:14.899Z,991.46
2018-12-21T10:01:14.903Z,991.43
2018-12-21T10:02:14.884Z,991.42
2018-12-21T10:03:14.881Z,991.40
2018-12-21T10:04:14.870Z,991.38
2018-12-21T10:05:14.868Z,991.33
2018-12-21T10:06:15.592Z,991.30
2018-12-21T10:07:14.855Z,991.25
2018-12-21T10:08:14.844Z,991.19
2018-12-21T10:09:14.850Z,991.16
2018-12-21T10:10:14.831Z,991.16
2018-12-21T10:11:14.836Z,991.14
2018-12-21T10:12:14.819Z,991.04
2018-12-21T10:13:14.811Z,991.00
2018-12-21T10:14:14.804Z,990.96
2018-12-21T10:15:14.799Z,990.93
2018-12-21T10:16:14.793Z,990.92
2018-12-21T10:17:14.787Z,990.89
2018-12-21T10:18:14.776Z,990.76
2018-12-21T10:19:14.781Z,990.80
2018-12-21T10:20:14.760Z,990.77
2018-12-21T10:21:14.757Z,990.67
2018-12-21T10:22:14.759Z,990.61
2018-12-21T10:23:14.747Z,990.66
2018-12-21T10:24:18.628Z,990.51
2018-12-21T10:25:14.734Z,990.53
2018-12-21T10:26:14.733Z,990.42
2018-12-21T10:27:14.718Z,990.43
2018-12-21T10:28:14.712Z,990.42
2018-12-21T10:29:14.699Z,990.39
2018-12-21T10:30:14.694Z,990.33
2018-12-21T10:31:14.689Z,990.38
2018-12-21T10:32:14.680Z,990.29
2018-12-21T10:33:14.676Z,990.22
2018-12-21T10:34:14.667Z,990.26
2018-12-21T10:35:14.659Z,990.26
2018-12-21T10:36:14.655Z,990.26
2018-12-21T10:37:16.692Z,990.17
2018-12-21T10:38:14.643Z,990.14
2018-12-21T10:39:14.635Z,990.09
2018-12-21T10:40:14.628Z,990.07
2018-12-21T10:41:14.622Z,990.07
2018-12-21T10:42:14.611Z,990.07
2018-12-21T10:43:14.611Z,990.07
2018-12-21T10:44:14.599Z,990.07
2018-12-21T10:45:14.603Z,990.03
2018-12-21T10:46:14.593Z,989.98
2018-12-21T10:47:14.582Z,989.94
2018-12-21T10:48:14.573Z,989.89
2018-12-21T10:49:14.562Z,989.84
2018-12-21T10:50:14.561Z,989.84
2018-12-21T10:51:14.557Z,989.81
2018-12-21T10:52:14.543Z,989.79
2018-12-21T10:53:14.540Z,989.78
2018-12-21T10:54:14.539Z,989.77
2018-12-21T10:55:14.527Z,989.71
2018-12-21T10:56:14.536Z,989.71
2018-12-21T10:57:14.532Z,989.64
2018-12-21T10:58:14.504Z,989.64
2018-12-21T10:59:21.087Z,989.60
2018-12-21T11:00:14.495Z,989.56
2018-12-21T11:01:14.489Z,989.62
2018-12-21T11:02:14.481Z,989.61
2018-12-21T11:03:14.485Z,989.53
2018-12-21T11:04:14.464Z,989.53
2018-12-21T11:05:14.901Z,989.53
2018-12-21T11:06:14.453Z,989.52
2018-12-21T11:07:14.446Z,989.48
2018-12-21T11:08:14.446Z,989.39
2018-12-21T11:09:14.428Z,989.37
2018-12-21T11:10:14.501Z,989.35
2018-12-21T11:11:14.421Z,989.30
2018-12-21T11:12:14.413Z,989.26
2018-12-21T11:13:14.407Z,989.20
2018-12-21T11:14:14.607Z,989.18
2018-12-21T11:15:14.394Z,989.17
2018-12-21T11:16:14.384Z,989.16
2018-12-21T11:17:14.378Z,989.15
2018-12-21T11:18:14.385Z,989.05
2018-12-21T11:19:14.373Z,989.00
2018-12-21T11:20:14.359Z,988.91
2018-12-21T11:21:14.353Z,988.96
2018-12-21T11:22:14.348Z,988.90
2018-12-21T11:23:14.347Z,988.84
2018-12-21T11:24:14.334Z,988.81
2018-12-21T11:25:14.327Z,988.77
2018-12-21T11:26:14.457Z,988.72
2018-12-21T11:27:14.312Z,988.72
2018-12-21T11:28:14.307Z,988.69
2018-12-21T11:29:14.599Z,988.64
2018-12-21T11:30:14.293Z,988.64
2018-12-21T11:31:14.287Z,988.57
2018-12-21T11:32:14.279Z,988.53
2018-12-21T11:33:14.275Z,988.53
2018-12-21T11:34:14.266Z,988.50
2018-12-21T11:35:14.263Z,988.49
2018-12-21T11:36:14.254Z,988.49
2018-12-21T11:37:14.248Z,988.41
2018-12-21T11:38:14.756Z,988.42
2018-12-21T11:39:14.245Z,988.36
2018-12-21T11:40:14.225Z,988.34
2018-12-21T11:41:14.229Z,988.31
2018-12-21T11:42:14.458Z,988.29
2018-12-21T11:43:14.204Z,988.18
2018-12-21T11:44:14.200Z,988.17
2018-12-21T11:45:14.194Z,988.15
2018-12-21T11:46:14.191Z,988.12
2018-12-21T11:47:14.289Z,988.05
2018-12-21T11:48:14.172Z,988.03
2018-12-21T11:49:14.168Z,988.01
2018-12-21T11:50:14.160Z,987.93
2018-12-21T11:51:14.155Z,987.86
2018-12-21T11:52:14.146Z,987.80
2018-12-21T11:53:14.140Z,987.77
2018-12-21T11:54:14.133Z,987.78
2018-12-21T11:55:14.122Z,987.74
2018-12-21T11:56:14.121Z,987.79
2018-12-21T11:57:14.113Z,987.71
2018-12-21T11:58:14.105Z,987.67
2018-12-21T11:59:14.097Z,987.61
2018-12-21T12:00:14.091Z,987.59
2018-12-21T12:01:14.088Z,987.56
2018-12-21T12:02:19.507Z,987.54
2018-12-21T12:03:14.069Z,987.49
2018-12-21T12:04:14.067Z,987.48
2018-12-21T12:05:14.059Z,987.43
2018-12-21T12:06:14.051Z,987.37
2018-12-21T12:07:14.048Z,987.31
2018-12-21T12:08:14.039Z,987.26
2018-12-21T12:09:14.041Z,987.24
2018-12-21T12:10:14.032Z,987.22
2018-12-21T12:11:14.635Z,987.20
2018-12-21T12:12:14.013Z,987.13
2018-12-21T12:13:14.006Z,987.16
2018-12-21T12:14:14.010Z,987.09
2018-12-21T12:15:13.999Z,986.99
2018-12-21T12:16:13.983Z,987.04
2018-12-21T12:17:13.978Z,986.90
2018-12-21T12:18:13.971Z,986.88
2018-12-21T12:19:13.964Z,986.83
2018-12-21T12:20:13.956Z,986.84
2018-12-21T12:21:13.947Z,986.82
2018-12-21T12:22:13.942Z,986.81
2018-12-21T12:23:13.937Z,986.76
2018-12-21T12:24:13.938Z,986.69
2018-12-21T12:25:13.923Z,986.71
2018-12-21T12:26:13.956Z,986.65
2018-12-21T12:27:13.912Z,986.62
2018-12-21T12:28:13.919Z,986.58